sensor_id;sensor_type;location;lat;lon;timestamp;pressure;altitude;pressure_sealevel;temperature;humidity
7264;BME280;3673;52.480;13.348;2023-11-25T00:00:27;99564.88;;;6.15;62.68
7264;BME280;3673;52.480;13.348;2023-11-25T00:02:54;99566.56;;;6.24;62.73
7264;BME280;3673;52.480;13.348;2023-11-25T00:05:22;99565.78;;;5.96;62.97
7264;BME280;3673;52.480;13.348;2023-11-25T00:07:48;99570.94;;;5.84;63.03
7264;BME280;3673;52.480;13.348;2023-11-25T00:10:15;99571.75;;;6.29;62.53
7264;BME280;3673;52.480;13.348;2023-11-25T00:12:42;99579.59;;;6.01;62.79
7264;BME280;3673;52.480;13.348;2023-11-25T00:15:10;99593.47;;;5.96;63.16
7264;BME280;3673;52.480;13.348;2023-11-25T00:17:37;99583.06;;;6.06;62.53
7264;BME280;3673;52.480;13.348;2023-11-25T00:20:05;99582.22;;;6.00;63.17
7264;BME280;3673;52.480;13.348;2023-11-25T00:22:33;99584.78;;;6.16;62.57
7264;BME280;3673;52.480;13.348;2023-11-25T00:25:00;99584.81;;;5.89;62.96
7264;BME280;3673;52.480;13.348;2023-11-25T00:27:27;99601.22;;;6.12;62.75
7264;BME280;3673;52.480;13.348;2023-11-25T00:29:55;99602.13;;;5.93;62.49
7264;BME280;3673;52.480;13.348;2023-11-25T00:32:23;99610.72;;;6.04;62.22
7264;BME280;3673;52.480;13.348;2023-11-25T00:34:50;99611.63;;;6.00;62.12
7264;BME280;3673;52.480;13.348;2023-11-25T00:37:16;99624.53;;;6.53;61.08
7264;BME280;3673;52.480;13.348;2023-11-25T00:39:43;99618.44;;;6.51;60.44
7264;BME280;3673;52.480;13.348;2023-11-25T00:42:10;99622.88;;;6.07;61.13
7264;BME280;3673;52.480;13.348;2023-11-25T00:44:36;99635.84;;;6.13;60.94
7264;BME280;3673;52.480;13.348;2023-11-25T00:47:04;99642.72;;;6.50;60.22
7264;BME280;3673;52.480;13.348;2023-11-25T00:49:40;99635.84;;;6.10;61.21
7264;BME280;3673;52.480;13.348;2023-11-25T00:52:08;99644.44;;;6.41;59.98
7264;BME280;3673;52.480;13.348;2023-11-25T00:54:35;99642.75;;;5.97;60.47
7264;BME280;3673;52.480;13.348;2023-11-25T00:57:01;99647.09;;;6.09;60.51
7264;BME280;3673;52.480;13.348;2023-11-25T00:59:28;99658.31;;;6.29;60.35
7264;BME280;3673;52.480;13.348;2023-11-25T01:01:55;99660.84;;;6.65;58.96
7264;BME280;3673;52.480;13.348;2023-11-25T01:04:22;99655.75;;;5.93;60.48
7264;BME280;3673;52.480;13.348;2023-11-25T01:06:50;99657.44;;;5.82;60.52
7264;BME280;3673;52.480;13.348;2023-11-25T01:09:17;99662.63;;;5.80;60.16
7264;BME280;3673;52.480;13.348;2023-11-25T01:11:45;99667.00;;;6.10;60.33
7264;BME280;3673;52.480;13.348;2023-11-25T01:14:12;99667.00;;;6.10;60.32
7264;BME280;3673;52.480;13.348;2023-11-25T01:16:38;99678.16;;;5.62;61.05
7264;BME280;3673;52.480;13.348;2023-11-25T01:19:06;99674.66;;;5.30;61.16
7264;BME280;3673;52.480;13.348;2023-11-25T01:21:33;99685.09;;;5.75;60.55
7264;BME280;3673;52.480;13.348;2023-11-25T01:24:01;99686.03;;;6.26;59.80
7264;BME280;3673;52.480;13.348;2023-11-25T01:26:28;99692.09;;;6.09;59.39
7264;BME280;3673;52.480;13.348;2023-11-25T01:28:55;99694.69;;;6.05;59.95
7264;BME280;3673;52.480;13.348;2023-11-25T01:31:21;99692.06;;;5.94;59.65
7264;BME280;3673;52.480;13.348;2023-11-25T01:33:48;99692.03;;;5.75;60.23
7264;BME280;3673;52.480;13.348;2023-11-25T01:36:15;99705.88;;;5.84;60.22
7264;BME280;3673;52.480;13.348;2023-11-25T01:38:43;99712.84;;;5.94;59.60
7264;BME280;3673;52.480;13.348;2023-11-25T01:41:11;99713.69;;;5.86;59.96
7264;BME280;3673;52.480;13.348;2023-11-25T01:43:37;99719.75;;;5.92;59.56
7264;BME280;3673;52.480;13.348;2023-11-25T01:46:05;99722.28;;;5.63;60.33
7264;BME280;3673;52.480;13.348;2023-11-25T01:48:33;99721.41;;;5.70;60.21
7264;BME280;3673;52.480;13.348;2023-11-25T01:51:01;99735.25;;;5.68;59.88
7264;BME280;3673;52.480;13.348;2023-11-25T01:53:29;99724.88;;;5.72;60.50
7264;BME280;3673;52.480;13.348;2023-11-25T01:55:56;99710.19;;;5.73;61.30
7264;BME280;3673;52.480;13.348;2023-11-25T01:58:26;99715.34;;;5.65;60.36
7264;BME280;3673;52.480;13.348;2023-11-25T02:00:53;99710.22;;;5.84;60.09
7264;BME280;3673;52.480;13.348;2023-11-25T02:03:20;99723.13;;;5.61;60.05
7264;BME280;3673;52.480;13.348;2023-11-25T02:05:48;99713.66;;;5.75;60.62
7264;BME280;3673;52.480;13.348;2023-11-25T02:08:15;99710.22;;;5.84;60.38
7264;BME280;3673;52.480;13.348;2023-11-25T02:10:42;99704.22;;;6.36;58.75
7264;BME280;3673;52.480;13.348;2023-11-25T02:13:08;99712.84;;;5.99;59.26
7264;BME280;3673;52.480;13.348;2023-11-25T02:15:38;99727.53;;;5.88;59.24
7264;BME280;3673;52.480;13.348;2023-11-25T02:18:05;99726.69;;;5.99;58.56
7264;BME280;3673;52.480;13.348;2023-11-25T02:20:33;99713.72;;;6.14;58.59
7264;BME280;3673;52.480;13.348;2023-11-25T02:23:04;99724.00;;;5.66;59.74
7264;BME280;3673;52.480;13.348;2023-11-25T02:25:31;99727.53;;;5.88;59.62
7264;BME280;3673;52.480;13.348;2023-11-25T02:27:58;99737.09;;;6.33;58.51
7264;BME280;3673;52.480;13.348;2023-11-25T02:30:25;99740.56;;;6.06;59.82
7264;BME280;3673;52.480;13.348;2023-11-25T02:32:52;99735.31;;;5.91;59.89
7264;BME280;3673;52.480;13.348;2023-11-25T02:35:19;99736.22;;;5.90;59.89
7264;BME280;3673;52.480;13.348;2023-11-25T02:37:47;99740.56;;;6.18;58.75
7264;BME280;3673;52.480;13.348;2023-11-25T02:40:16;99743.06;;;5.79;60.39
7264;BME280;3673;52.480;13.348;2023-11-25T02:42:43;99749.19;;;5.90;59.88
7264;BME280;3673;52.480;13.348;2023-11-25T02:45:15;99744.88;;;5.93;59.98
7264;BME280;3673;52.480;13.348;2023-11-25T02:47:44;99757.72;;;5.57;60.62
7264;BME280;3673;52.480;13.348;2023-11-25T02:50:12;99750.91;;;6.10;59.33
7264;BME280;3673;52.480;13.348;2023-11-25T02:52:39;99766.53;;;6.26;58.54
7264;BME280;3673;52.480;13.348;2023-11-25T02:55:07;99756.03;;;5.72;60.22
7264;BME280;3673;52.480;13.348;2023-11-25T02:57:37;99757.84;;;6.04;60.29
7264;BME280;3673;52.480;13.348;2023-11-25T03:00:08;99770.81;;;5.95;60.39
7264;BME280;3673;52.480;13.348;2023-11-25T03:02:41;99763.81;;;5.76;61.28
7264;BME280;3673;52.480;13.348;2023-11-25T03:05:09;99768.16;;;5.84;61.04
7264;BME280;3673;52.480;13.348;2023-11-25T03:07:38;99768.13;;;5.69;61.07
7264;BME280;3673;52.480;13.348;2023-11-25T03:10:06;99768.25;;;6.16;60.87
7264;BME280;3673;52.480;13.348;2023-11-25T03:12:33;99781.13;;;5.74;61.40
7264;BME280;3673;52.480;13.348;2023-11-25T03:15:01;99789.63;;;5.41;62.19
7264;BME280;3673;52.480;13.348;2023-11-25T03:17:29;99791.41;;;5.52;62.89
7264;BME280;3673;52.480;13.348;2023-11-25T03:19:55;99784.66;;;5.95;61.89
7264;BME280;3673;52.480;13.348;2023-11-25T03:22:22;99781.03;;;5.54;63.23
7264;BME280;3673;52.480;13.348;2023-11-25T03:24:50;99786.34;;;5.87;62.48
7264;BME280;3673;52.480;13.348;2023-11-25T03:27:16;99793.31;;;5.93;62.64
7264;BME280;3673;52.480;13.348;2023-11-25T03:29:43;99794.19;;;6.02;62.68
7264;BME280;3673;52.480;13.348;2023-11-25T03:32:12;99780.34;;;6.05;62.08
7264;BME280;3673;52.480;13.348;2023-11-25T03:34:40;99801.94;;;5.92;62.34
7264;BME280;3673;52.480;13.348;2023-11-25T03:37:07;99798.53;;;6.25;62.47
7264;BME280;3673;52.480;13.348;2023-11-25T03:39:34;99801.88;;;5.80;62.35
7264;BME280;3673;52.480;13.348;2023-11-25T03:42:01;99802.69;;;5.65;63.58
7264;BME280;3673;52.480;13.348;2023-11-25T03:44:29;99805.22;;;5.45;63.69
7264;BME280;3673;52.480;13.348;2023-11-25T03:46:56;99801.94;;;5.87;63.41
7264;BME280;3673;52.480;13.348;2023-11-25T03:49:24;99815.78;;;5.89;63.21
7264;BME280;3673;52.480;13.348;2023-11-25T03:51:51;99812.38;;;5.99;63.10
7264;BME280;3673;52.480;13.348;2023-11-25T03:54:17;99813.03;;;5.57;63.94
7264;BME280;3673;52.480;13.348;2023-11-25T03:56:44;99818.38;;;5.86;63.18
7264;BME280;3673;52.480;13.348;2023-11-25T03:59:11;99823.59;;;5.92;62.55
7264;BME280;3673;52.480;13.348;2023-11-25T04:01:38;99837.34;;;5.82;62.86
7264;BME280;3673;52.480;13.348;2023-11-25T04:04:07;99830.44;;;5.80;63.51
7264;BME280;3673;52.480;13.348;2023-11-25T04:06:35;99838.16;;;5.67;63.90
7264;BME280;3673;52.480;13.348;2023-11-25T04:09:03;99849.44;;;5.76;63.84
7264;BME280;3673;52.480;13.348;2023-11-25T04:11:30;99836.69;;;6.47;62.21
7264;BME280;3673;52.480;13.348;2023-11-25T04:13:57;99838.41;;;6.33;62.36
7264;BME280;3673;52.480;13.348;2023-11-25T04:16:24;99835.81;;;6.52;61.88
7264;BME280;3673;52.480;13.348;2023-11-25T04:18:51;99845.34;;;6.99;60.78
7264;BME280;3673;52.480;13.348;2023-11-25T04:21:18;99848.81;;;6.49;62.00
7264;BME280;3673;52.480;13.348;2023-11-25T04:23:50;99852.22;;;6.32;62.40
7264;BME280;3673;52.480;13.348;2023-11-25T04:26:18;99850.44;;;6.08;62.69
7264;BME280;3673;52.480;13.348;2023-11-25T04:28:45;99858.97;;;5.84;63.62
7264;BME280;3673;52.480;13.348;2023-11-25T04:31:12;99853.97;;;6.31;63.05
7264;BME280;3673;52.480;13.348;2023-11-25T04:33:39;99865.09;;;5.88;63.63
7264;BME280;3673;52.480;13.348;2023-11-25T04:36:07;99862.59;;;6.16;63.23
7264;BME280;3673;52.480;13.348;2023-11-25T04:38:35;99853.03;;;6.00;63.20
7264;BME280;3673;52.480;13.348;2023-11-25T04:41:03;99867.78;;;6.18;63.29
7264;BME280;3673;52.480;13.348;2023-11-25T04:43:30;99862.59;;;6.15;62.94
7264;BME280;3673;52.480;13.348;2023-11-25T04:45:56;99871.94;;;5.84;63.55
7264;BME280;3673;52.480;13.348;2023-11-25T04:48:24;99873.00;;;6.29;62.85
7264;BME280;3673;52.480;13.348;2023-11-25T04:50:51;99875.53;;;6.07;63.48
7264;BME280;3673;52.480;13.348;2023-11-25T04:53:18;99877.25;;;6.01;62.80
7264;BME280;3673;52.480;13.348;2023-11-25T04:55:44;99871.75;;;5.42;65.03
7264;BME280;3673;52.480;13.348;2023-11-25T04:58:12;99871.94;;;5.74;63.79
7264;BME280;3673;52.480;13.348;2023-11-25T05:00:40;99859.59;;;5.35;65.20
7264;BME280;3673;52.480;13.348;2023-11-25T05:03:06;99877.06;;;5.64;64.06
7264;BME280;3673;52.480;13.348;2023-11-25T05:05:35;99869.28;;;5.60;63.71
7264;BME280;3673;52.480;13.348;2023-11-25T05:08:02;99875.38;;;5.72;64.10
7264;BME280;3673;52.480;13.348;2023-11-25T05:10:30;99883.97;;;5.62;63.80
7264;BME280;3673;52.480;13.348;2023-11-25T05:12:57;99884.00;;;5.71;63.96
7264;BME280;3673;52.480;13.348;2023-11-25T05:15:25;99891.00;;;5.85;62.91
7264;BME280;3673;52.480;13.348;2023-11-25T05:17:52;99890.03;;;5.60;63.90
7264;BME280;3673;52.480;13.348;2023-11-25T05:20:19;99889.34;;;5.93;63.26
7264;BME280;3673;52.480;13.348;2023-11-25T05:22:47;99886.72;;;5.91;63.12
7264;BME280;3673;52.480;13.348;2023-11-25T05:25:13;99905.69;;;5.84;62.68
7264;BME280;3673;52.480;13.348;2023-11-25T05:27:41;99906.41;;;5.54;63.61
7264;BME280;3673;52.480;13.348;2023-11-25T05:30:09;99908.22;;;5.67;63.60
7264;BME280;3673;52.480;13.348;2023-11-25T05:32:38;99910.97;;;5.90;62.41
7264;BME280;3673;52.480;13.348;2023-11-25T05:35:05;99903.09;;;5.83;62.93
7264;BME280;3673;52.480;13.348;2023-11-25T05:37:32;99910.63;;;5.36;63.48
7264;BME280;3673;52.480;13.348;2023-11-25T05:39:59;99926.47;;;5.83;63.02
7264;BME280;3673;52.480;13.348;2023-11-25T05:42:26;99914.81;;;5.18;63.99
7264;BME280;3673;52.480;13.348;2023-11-25T05:44:53;99921.94;;;5.47;64.17
7264;BME280;3673;52.480;13.348;2023-11-25T05:47:21;99930.53;;;5.37;64.04
7264;BME280;3673;52.480;13.348;2023-11-25T05:49:49;99922.75;;;5.40;64.14
7264;BME280;3673;52.480;13.348;2023-11-25T05:52:16;99934.63;;;5.10;63.97
7264;BME280;3673;52.480;13.348;2023-11-25T05:54:43;99933.13;;;5.37;64.11
7264;BME280;3673;52.480;13.348;2023-11-25T05:57:09;99937.28;;;5.16;64.40
7264;BME280;3673;52.480;13.348;2023-11-25T05:59:36;99942.63;;;5.39;64.56
7264;BME280;3673;52.480;13.348;2023-11-25T06:02:03;99932.28;;;5.45;63.84
7264;BME280;3673;52.480;13.348;2023-11-25T06:04:30;99948.47;;;5.12;64.82
7264;BME280;3673;52.480;13.348;2023-11-25T06:06:58;99940.06;;;5.45;64.07
7264;BME280;3673;52.480;13.348;2023-11-25T06:09:25;99935.69;;;5.34;64.13
7264;BME280;3673;52.480;13.348;2023-11-25T06:11:51;99938.13;;;5.15;64.14
7264;BME280;3673;52.480;13.348;2023-11-25T06:14:18;99934.75;;;5.26;63.44
7264;BME280;3673;52.480;13.348;2023-11-25T06:16:45;99952.69;;;5.01;64.98
7264;BME280;3673;52.480;13.348;2023-11-25T06:19:14;99947.50;;;5.00;64.37
7264;BME280;3673;52.480;13.348;2023-11-25T06:21:43;99948.53;;;5.18;63.94
7264;BME280;3673;52.480;13.348;2023-11-25T06:24:13;99960.53;;;5.06;65.01
7264;BME280;3673;52.480;13.348;2023-11-25T06:26:42;99949.13;;;4.89;64.57
7264;BME280;3673;52.480;13.348;2023-11-25T06:29:09;99949.38;;;5.17;63.76
7264;BME280;3673;52.480;13.348;2023-11-25T06:31:36;99955.47;;;5.24;64.12
7264;BME280;3673;52.480;13.348;2023-11-25T06:34:05;99950.53;;;5.57;62.79
7264;BME280;3673;52.480;13.348;2023-11-25T06:36:32;99952.94;;;5.30;63.11
7264;BME280;3673;52.480;13.348;2023-11-25T06:38:59;99953.84;;;5.38;62.99
7264;BME280;3673;52.480;13.348;2023-11-25T06:41:27;99947.22;;;5.81;61.93
7264;BME280;3673;52.480;13.348;2023-11-25T06:43:53;99957.78;;;6.11;61.43
7264;BME280;3673;52.480;13.348;2023-11-25T06:46:20;99957.34;;;5.45;62.42
7264;BME280;3673;52.480;13.348;2023-11-25T06:48:48;99955.16;;;4.86;63.47
7264;BME280;3673;52.480;13.348;2023-11-25T06:51:18;99948.59;;;5.31;62.95
7264;BME280;3673;52.480;13.348;2023-11-25T06:53:44;99957.41;;;5.51;62.44
7264;BME280;3673;52.480;13.348;2023-11-25T06:56:11;99954.78;;;5.46;62.74
7264;BME280;3673;52.480;13.348;2023-11-25T06:58:40;99961.50;;;5.17;62.87
7264;BME280;3673;52.480;13.348;2023-11-25T07:01:07;99948.81;;;5.59;62.37
7264;BME280;3673;52.480;13.348;2023-11-25T07:03:34;99963.50;;;5.59;61.99
7264;BME280;3673;52.480;13.348;2023-11-25T07:06:01;99959.78;;;5.19;62.65
7264;BME280;3673;52.480;13.348;2023-11-25T07:08:30;99970.09;;;5.17;62.60
7264;BME280;3673;52.480;13.348;2023-11-25T07:10:58;99966.31;;;5.86;61.61
7264;BME280;3673;52.480;13.348;2023-11-25T07:13:27;99971.38;;;5.74;61.32
7264;BME280;3673;52.480;13.348;2023-11-25T07:15:55;99974.88;;;5.79;61.59
7264;BME280;3673;52.480;13.348;2023-11-25T07:18:22;99976.63;;;5.82;60.78
7264;BME280;3673;52.480;13.348;2023-11-25T07:20:49;99984.22;;;5.53;61.26
7264;BME280;3673;52.480;13.348;2023-11-25T07:23:16;99972.94;;;5.48;61.34
7264;BME280;3673;52.480;13.348;2023-11-25T07:25:44;99968.50;;;5.32;62.63
7264;BME280;3673;52.480;13.348;2023-11-25T07:28:11;99979.19;;;5.79;60.89
7264;BME280;3673;52.480;13.348;2023-11-25T07:30:38;99974.03;;;5.85;60.39
7264;BME280;3673;52.480;13.348;2023-11-25T07:33:08;99974.41;;;5.14;61.73
7264;BME280;3673;52.480;13.348;2023-11-25T07:35:36;99969.47;;;5.47;61.50
7264;BME280;3673;52.480;13.348;2023-11-25T07:38:02;99969.97;;;5.01;62.10
7264;BME280;3673;52.480;13.348;2023-11-25T07:40:29;99970.03;;;5.07;62.39
7264;BME280;3673;52.480;13.348;2023-11-25T07:42:56;99968.53;;;5.36;62.05
7264;BME280;3673;52.480;13.348;2023-11-25T07:45:22;99970.28;;;5.36;61.97
7264;BME280;3673;52.480;13.348;2023-11-25T07:47:51;99964.28;;;5.43;61.56
7264;BME280;3673;52.480;13.348;2023-11-25T07:50:19;99968.44;;;5.23;61.72
7264;BME280;3673;52.480;13.348;2023-11-25T07:52:47;99973.97;;;5.69;61.27
7264;BME280;3673;52.480;13.348;2023-11-25T07:55:14;99979.53;;;5.08;61.64
7264;BME280;3673;52.480;13.348;2023-11-25T07:57:42;99980.53;;;5.22;62.06
7264;BME280;3673;52.480;13.348;2023-11-25T08:00:10;99982.47;;;5.52;61.19
7264;BME280;3673;52.480;13.348;2023-11-25T08:02:41;99970.00;;;5.02;61.37
7264;BME280;3673;52.480;13.348;2023-11-25T08:05:08;99976.22;;;5.27;61.85
7264;BME280;3673;52.480;13.348;2023-11-25T08:07:36;99983.16;;;5.25;61.76
7264;BME280;3673;52.480;13.348;2023-11-25T08:10:05;99975.69;;;5.69;60.69
7264;BME280;3673;52.480;13.348;2023-11-25T08:12:33;99993.53;;;5.28;60.99
7264;BME280;3673;52.480;13.348;2023-11-25T08:15:00;99985.03;;;5.43;61.39
7264;BME280;3673;52.480;13.348;2023-11-25T08:17:26;99990.69;;;4.96;61.47
7264;BME280;3673;52.480;13.348;2023-11-25T08:19:55;99986.78;;;5.47;60.84
7264;BME280;3673;52.480;13.348;2023-11-25T08:22:22;99977.47;;;5.81;60.33
7264;BME280;3673;52.480;13.348;2023-11-25T08:24:51;99978.16;;;5.52;60.61
7264;BME280;3673;52.480;13.348;2023-11-25T08:27:21;99975.88;;;5.98;59.26
7264;BME280;3673;52.480;13.348;2023-11-25T08:29:48;99978.63;;;6.24;58.68
7264;BME280;3673;52.480;13.348;2023-11-25T08:32:15;99975.81;;;5.86;59.15
7264;BME280;3673;52.480;13.348;2023-11-25T08:34:42;99979.34;;;5.97;59.13
7264;BME280;3673;52.480;13.348;2023-11-25T08:37:09;99978.66;;;6.39;57.75
7264;BME280;3673;52.480;13.348;2023-11-25T08:39:35;99977.00;;;6.59;57.37
7264;BME280;3673;52.480;13.348;2023-11-25T08:42:04;99980.19;;;5.94;58.30
7264;BME280;3673;52.480;13.348;2023-11-25T08:44:34;99976.03;;;6.27;58.00
7264;BME280;3673;52.480;13.348;2023-11-25T08:47:01;99974.88;;;5.76;58.16
7264;BME280;3673;52.480;13.348;2023-11-25T08:49:28;99975.16;;;6.31;57.49
7264;BME280;3673;52.480;13.348;2023-11-25T08:51:55;99976.97;;;6.44;57.29
7264;BME280;3673;52.480;13.348;2023-11-25T08:54:22;99978.75;;;6.75;56.99
7264;BME280;3673;52.480;13.348;2023-11-25T08:56:48;99980.47;;;6.64;56.34
7264;BME280;3673;52.480;13.348;2023-11-25T08:59:18;99988.31;;;6.82;56.21
7264;BME280;3673;52.480;13.348;2023-11-25T09:01:46;99991.78;;;6.83;56.42
7264;BME280;3673;52.480;13.348;2023-11-25T09:04:14;99995.16;;;6.57;56.66
7264;BME280;3673;52.480;13.348;2023-11-25T09:06:45;99990.78;;;6.41;57.32
7264;BME280;3673;52.480;13.348;2023-11-25T09:09:13;100002.09;;;6.49;57.19
7264;BME280;3673;52.480;13.348;2023-11-25T09:11:41;99981.28;;;6.45;57.03
7264;BME280;3673;52.480;13.348;2023-11-25T09:14:08;99996.03;;;6.55;57.43
7264;BME280;3673;52.480;13.348;2023-11-25T09:16:36;99989.22;;;6.90;56.86
7264;BME280;3673;52.480;13.348;2023-11-25T09:19:04;99987.44;;;6.85;57.18
7264;BME280;3673;52.480;13.348;2023-11-25T09:21:30;99989.22;;;6.96;56.94
7264;BME280;3673;52.480;13.348;2023-11-25T09:23:57;99977.00;;;6.65;56.71
7264;BME280;3673;52.480;13.348;2023-11-25T09:26:24;99977.94;;;6.87;56.83
7264;BME280;3673;52.480;13.348;2023-11-25T09:28:51;99980.53;;;6.97;56.91
7264;BME280;3673;52.480;13.348;2023-11-25T09:31:20;99981.28;;;6.46;57.58
7264;BME280;3673;52.480;13.348;2023-11-25T09:33:49;99983.16;;;7.03;57.16
7264;BME280;3673;52.480;13.348;2023-11-25T09:36:16;99984.88;;;7.29;55.90
7264;BME280;3673;52.480;13.348;2023-11-25T09:38:43;99983.88;;;6.48;57.33
7264;BME280;3673;52.480;13.348;2023-11-25T09:41:10;99989.91;;;6.33;58.23
7264;BME280;3673;52.480;13.348;2023-11-25T09:43:38;99983.91;;;6.58;58.06
7264;BME280;3673;52.480;13.348;2023-11-25T09:46:05;99982.25;;;6.92;58.22
7264;BME280;3673;52.480;13.348;2023-11-25T09:48:32;99979.69;;;7.09;57.64
7264;BME280;3673;52.480;13.348;2023-11-25T09:51:00;99973.59;;;7.34;57.02
7264;BME280;3673;52.480;13.348;2023-11-25T09:53:30;99966.63;;;7.68;56.25
7264;BME280;3673;52.480;13.348;2023-11-25T09:56:01;99951.88;;;7.84;55.82
7264;BME280;3673;52.480;13.348;2023-11-25T09:58:32;99951.03;;;7.68;55.91
7264;BME280;3673;52.480;13.348;2023-11-25T10:01:00;99952.72;;;7.78;55.22
7264;BME280;3673;52.480;13.348;2023-11-25T10:03:34;99948.28;;;8.16;55.17
7264;BME280;3673;52.480;13.348;2023-11-25T10:06:02;99946.69;;;7.68;55.69
7264;BME280;3673;52.480;13.348;2023-11-25T10:08:30;99956.25;;;7.45;56.90
7264;BME280;3673;52.480;13.348;2023-11-25T10:11:00;99954.53;;;7.56;57.09
7264;BME280;3673;52.480;13.348;2023-11-25T10:13:33;99943.22;;;7.66;56.79
7264;BME280;3673;52.480;13.348;2023-11-25T10:16:00;99950.09;;;7.84;56.15
7264;BME280;3673;52.480;13.348;2023-11-25T10:18:27;99938.78;;;8.03;56.07
7264;BME280;3673;52.480;13.348;2023-11-25T10:20:54;99928.50;;;7.59;56.45
7264;BME280;3673;52.480;13.348;2023-11-25T10:23:25;99933.53;;;8.12;55.97
7264;BME280;3673;52.480;13.348;2023-11-25T10:25:53;99939.59;;;8.11;56.12
7264;BME280;3673;52.480;13.348;2023-11-25T10:28:21;99930.16;;;7.86;56.49
7264;BME280;3673;52.480;13.348;2023-11-25T10:30:54;99932.72;;;7.98;56.09
7264;BME280;3673;52.480;13.348;2023-11-25T10:33:22;99930.16;;;7.83;57.00
7264;BME280;3673;52.480;13.348;2023-11-25T10:35:50;99931.00;;;7.96;56.93
7264;BME280;3673;52.480;13.348;2023-11-25T10:38:18;99923.19;;;7.96;57.04
7264;BME280;3673;52.480;13.348;2023-11-25T10:40:49;99931.91;;;7.80;57.27
7264;BME280;3673;52.480;13.348;2023-11-25T10:43:16;99929.28;;;7.89;57.00
7264;BME280;3673;52.480;13.348;2023-11-25T10:45:43;99923.94;;;8.17;56.47
7264;BME280;3673;52.480;13.348;2023-11-25T10:48:11;99910.22;;;7.84;56.81
7264;BME280;3673;52.480;13.348;2023-11-25T10:50:40;99914.59;;;7.57;58.04
7264;BME280;3673;52.480;13.348;2023-11-25T10:53:12;99912.88;;;7.62;58.86
7264;BME280;3673;52.480;13.348;2023-11-25T10:55:40;99924.91;;;8.00;57.53
7264;BME280;3673;52.480;13.348;2023-11-25T10:58:11;99913.59;;;7.98;57.84
7264;BME280;3673;52.480;13.348;2023-11-25T11:00:38;99914.59;;;7.63;57.96
7264;BME280;3673;52.480;13.348;2023-11-25T11:03:09;99917.25;;;7.15;59.75
7264;BME280;3673;52.480;13.348;2023-11-25T11:05:45;99913.69;;;7.72;58.66
7264;BME280;3673;52.480;13.348;2023-11-25T11:08:16;99918.06;;;7.62;58.74
7264;BME280;3673;52.480;13.348;2023-11-25T11:10:53;99903.28;;;7.75;59.67
7264;BME280;3673;52.480;13.348;2023-11-25T11:13:33;99909.34;;;7.86;59.05
7264;BME280;3673;52.480;13.348;2023-11-25T11:16:06;99907.59;;;7.82;58.57
7264;BME280;3673;52.480;13.348;2023-11-25T11:18:35;99915.44;;;7.74;59.43
7264;BME280;3673;52.480;13.348;2023-11-25T11:21:05;99913.63;;;7.92;59.15
7264;BME280;3673;52.480;13.348;2023-11-25T11:23:35;99905.09;;;7.53;59.74
7264;BME280;3673;52.480;13.348;2023-11-25T11:26:15;99911.19;;;7.33;60.75
7264;BME280;3673;52.480;13.348;2023-11-25T11:28:54;99911.84;;;8.06;59.58
7264;BME280;3673;52.480;13.348;2023-11-25T11:31:59;99907.63;;;7.79;60.00
7264;BME280;3673;52.480;13.348;2023-11-25T11:34:28;99906.75;;;7.83;60.44
7264;BME280;3673;52.480;13.348;2023-11-25T11:36:55;99909.34;;;7.82;60.05
7264;BME280;3673;52.480;13.348;2023-11-25T11:39:37;99911.06;;;7.81;60.15
7264;BME280;3673;52.480;13.348;2023-11-25T11:42:27;99913.63;;;7.99;59.51
7264;BME280;3673;52.480;13.348;2023-11-25T11:45:06;99911.06;;;7.90;59.72
7264;BME280;3673;52.480;13.348;2023-11-25T11:47:44;99916.38;;;7.36;61.50
7264;BME280;3673;52.480;13.348;2023-11-25T11:50:19;99906.69;;;7.91;60.79
7264;BME280;3673;52.480;13.348;2023-11-25T11:53:14;99903.31;;;7.61;61.26
7264;BME280;3673;52.480;13.348;2023-11-25T11:55:43;99902.50;;;7.32;61.32
7264;BME280;3673;52.480;13.348;2023-11-25T11:58:16;99892.88;;;7.76;60.89
7264;BME280;3673;52.480;13.348;2023-11-25T12:00:52;99895.47;;;7.78;61.57
7264;BME280;3673;52.480;13.348;2023-11-25T12:03:19;99898.22;;;7.10;61.97
7264;BME280;3673;52.480;13.348;2023-11-25T12:05:46;99892.13;;;7.26;61.94
7264;BME280;3673;52.480;13.348;2023-11-25T12:08:13;99893.84;;;7.33;61.82
7264;BME280;3673;52.480;13.348;2023-11-25T12:10:40;99892.06;;;7.49;62.06
7264;BME280;3673;52.480;13.348;2023-11-25T12:13:07;99898.19;;;7.28;62.71
7264;BME280;3673;52.480;13.348;2023-11-25T12:15:36;99888.63;;;7.24;62.94
7264;BME280;3673;52.480;13.348;2023-11-25T12:18:05;99886.03;;;7.33;62.28
7264;BME280;3673;52.480;13.348;2023-11-25T12:20:32;99899.03;;;7.35;61.89
7264;BME280;3673;52.480;13.348;2023-11-25T12:23:05;99889.53;;;6.99;62.74
7264;BME280;3673;52.480;13.348;2023-11-25T12:25:35;99894.72;;;6.81;63.59
7264;BME280;3673;52.480;13.348;2023-11-25T12:28:06;99896.47;;;7.13;62.96
7264;BME280;3673;52.480;13.348;2023-11-25T12:30:38;99892.94;;;7.45;62.75
7264;BME280;3673;52.480;13.348;2023-11-25T12:33:08;99893.00;;;6.99;62.49
7264;BME280;3673;52.480;13.348;2023-11-25T12:35:38;99902.50;;;6.78;63.64
7264;BME280;3673;52.480;13.348;2023-11-25T12:38:05;99899.94;;;6.88;63.59
7264;BME280;3673;52.480;13.348;2023-11-25T12:40:32;99903.38;;;7.40;62.54
7264;BME280;3673;52.480;13.348;2023-11-25T12:43:00;99901.66;;;7.18;62.32
7264;BME280;3673;52.480;13.348;2023-11-25T12:45:30;99912.94;;;6.87;62.79
7264;BME280;3673;52.480;13.348;2023-11-25T12:47:58;99902.50;;;6.62;63.19
7264;BME280;3673;52.480;13.348;2023-11-25T12:50:27;99899.03;;;7.29;63.11
7264;BME280;3673;52.480;13.348;2023-11-25T12:53:04;99891.19;;;7.53;61.80
7264;BME280;3673;52.480;13.348;2023-11-25T12:55:39;99894.69;;;7.46;61.62
7264;BME280;3673;52.480;13.348;2023-11-25T12:58:10;99901.66;;;6.95;62.48
7264;BME280;3673;52.480;13.348;2023-11-25T13:00:44;99896.47;;;7.19;63.12
7264;BME280;3673;52.480;13.348;2023-11-25T13:03:11;99903.41;;;7.10;62.94
7264;BME280;3673;52.480;13.348;2023-11-25T13:05:48;99907.72;;;6.91;63.54
7264;BME280;3673;52.480;13.348;2023-11-25T13:08:22;99898.19;;;6.89;63.59
7264;BME280;3673;52.480;13.348;2023-11-25T13:10:54;99898.19;;;7.05;63.32
7264;BME280;3673;52.480;13.348;2023-11-25T13:13:23;99895.59;;;7.22;63.26
7264;BME280;3673;52.480;13.348;2023-11-25T13:15:50;99896.41;;;7.50;62.34
7264;BME280;3673;52.480;13.348;2023-11-25T13:18:20;99899.94;;;7.15;62.41
7264;BME280;3673;52.480;13.348;2023-11-25T13:20:49;99909.44;;;6.53;64.00
7264;BME280;3673;52.480;13.348;2023-11-25T13:23:15;99906.88;;;6.95;63.17
7264;BME280;3673;52.480;13.348;2023-11-25T13:25:44;99900.78;;;6.78;63.69
7264;BME280;3673;52.480;13.348;2023-11-25T13:28:11;99911.19;;;7.05;63.38